Thunder radar more information blitzortung!


Radar de pluja more information rain snow radar


Visita la nostra xarxa de llocs de meteo:

Template documentation
and downloads

And another site



No particular awareness of the weather is required.    There are no Weather-warnings

Pagina Historial Weather Underground text

Diari Resum May 22, 2017 Unitats:  Tant    Imperial   Mètric
« Previous Dia
SegĂźent Dia »
Diari Setmana Mensual Anual Personalitzada
  Maxima: Minima: Media:
Temperatura: TemperatureC °F /  -17.8 °C 15.6 °F /  -9.1 °C 22.6 °F /  -5.2 °C
Punt de rosada: DewpointC °F /  -17.8 °C 8.8 °F /  -12.9 °C 11 °F /  -11.7 °C
Humitat: Humidity % 36 % 49 %
Wind Speed: WindSpeedKMH mph /  0 km/h - 7.2 mph /  11.6 km/h
RĂ fegues de vent: WindSpeedGustKMH mph /  0 km/h - -
Vent:- - SSW
Pression baro: PressurehPa in /  0 hPa 1015.8 in /  34395 hPa -
Precipitacions: 0.0 in /  0 mm    
Historical Graphs
 
 
Dades de taula per May 22, 2017
Temps Temperatura Punt de rosada Pression baro Vent Wind Speed RĂ fegues de vent Humitat Rainfall Rate (Hourly)
TemperatureC °F /  -17.8 °C DewpointC °F /  -17.8 °C PressurehPa in /  0 hPa Calm     Humidity % HourlyPrecipMM in /  0 mm
00:01 17.0 °F /  -8.3 °C 9.7 °F /  -12.4 °C 1019.9 in /  34533.8 hPa SW 3.7 mph /  6 km/h 3.7 mph /  6 km/h 62 % 0.0 in /  0 mm
00:06 16.9 °F /  -8.4 °C 9.8 °F /  -12.3 °C 1019.9 in /  34533.8 hPa SW 2.3 mph /  3.7 km/h 2.3 mph /  3.7 km/h 63 % 0.0 in /  0 mm
00:11 16.9 °F /  -8.4 °C 10.1 °F /  -12.2 °C 1019.9 in /  34533.8 hPa Calm     64 % 0.0 in /  0 mm
00:16 16.9 °F /  -8.4 °C 10.1 °F /  -12.2 °C 1019.9 in /  34533.8 hPa SW 1.9 mph /  3.1 km/h   64 % 0.0 in /  0 mm
04:40 20.0 °F /  -6.7 °C 13.2 °F /  -10.4 °C 1019.9 in /  34533.8 hPa SW 3.2 mph /  5.1 km/h 3.2 mph /  5.1 km/h 65 % 0.0 in /  0 mm
04:50 20.7 °F /  -6.3 °C 13.7 °F /  -10.2 °C 1019.9 in /  34533.8 hPa SW 1.6 mph /  2.6 km/h 4.8 mph /  7.7 km/h 64 % 0.0 in /  0 mm
04:55 20.4 °F /  -6.4 °C 13.1 °F /  -10.5 °C 1018.8 in /  34496.6 hPa SSW 4.8 mph /  7.7 km/h 9.7 mph /  15.6 km/h 63 % 0.0 in /  0 mm
05:05 20.9 °F /  -6.2 °C 13.1 °F /  -10.5 °C 1018.8 in /  34496.6 hPa SSW 3.2 mph /  5.1 km/h 9.7 mph /  15.6 km/h 61 % 0.0 in /  0 mm
05:15 21.0 °F /  -6.1 °C 12.4 °F /  -10.9 °C 1018.8 in /  34496.6 hPa SSW 4.8 mph /  7.7 km/h 8.0 mph /  12.9 km/h 58 % 0.0 in /  0 mm
05:25 21.2 °F /  -6 °C 12.6 °F /  -10.8 °C 1018.8 in /  34496.6 hPa SSW 3.2 mph /  5.1 km/h 12.9 mph /  20.8 km/h 58 % 0.0 in /  0 mm
10:33 21.9 °F /  -5.6 °C 12.7 °F /  -10.7 °C 1018.8 in /  34496.6 hPa SSW 7.4 mph /  11.9 km/h 7.4 mph /  11.9 km/h 56 % 0.0 in /  0 mm
10:38 22.1 °F /  -5.5 °C 12.3 °F /  -10.9 °C 1018.8 in /  34496.6 hPa SW 7.4 mph /  11.9 km/h 7.4 mph /  11.9 km/h 54 % 0.0 in /  0 mm
10:43 22.8 °F /  -5.1 °C 13.0 °F /  -10.6 °C 1018.8 in /  34496.6 hPa SW 7.4 mph /  11.9 km/h 7.4 mph /  11.9 km/h 54 % 0.0 in /  0 mm
10:48 22.6 °F /  -5.2 °C 12.8 °F /  -10.7 °C 1018.8 in /  34496.6 hPa West 7.4 mph /  11.9 km/h 7.4 mph /  11.9 km/h 54 % 0.0 in /  0 mm
10:53 23.1 °F /  -4.9 °C 12.7 °F /  -10.7 °C 1018.8 in /  34496.6 hPa SW 8.7 mph /  14 km/h 8.7 mph /  14 km/h 52 % 0.0 in /  0 mm
10:58 23.5 °F /  -4.7 °C 12.8 °F /  -10.7 °C 1018.8 in /  34496.6 hPa SSW 9.3 mph /  15 km/h 9.3 mph /  15 km/h 51 % 0.0 in /  0 mm
11:03 23.9 °F /  -4.5 °C 12.8 °F /  -10.7 °C 1018.8 in /  34496.6 hPa WSW 5.6 mph /  9 km/h 5.6 mph /  9 km/h 50 % 0.0 in /  0 mm
11:08 23.5 °F /  -4.7 °C 12.5 °F /  -10.8 °C 1018.8 in /  34496.6 hPa SW 11.1 mph /  17.9 km/h 11.1 mph /  17.9 km/h 50 % 0.0 in /  0 mm
11:13 23.4 °F /  -4.8 °C 11.8 °F /  -11.2 °C 1018.8 in /  34496.6 hPa SSW 13.0 mph /  20.9 km/h 13.0 mph /  20.9 km/h 48 % 0.0 in /  0 mm
11:18 23.6 °F /  -4.7 °C 11.6 °F /  -11.3 °C 1018.8 in /  34496.6 hPa SW 9.3 mph /  15 km/h 9.3 mph /  15 km/h 47 % 0.0 in /  0 mm
11:23 23.7 °F /  -4.6 °C 11.7 °F /  -11.3 °C 1019.9 in /  34533.8 hPa SSW 9.3 mph /  15 km/h 9.3 mph /  15 km/h 47 % 0.0 in /  0 mm
11:28 24.3 °F /  -4.3 °C 12.3 °F /  -10.9 °C 1019.9 in /  34533.8 hPa SW 7.9 mph /  12.7 km/h 7.9 mph /  12.7 km/h 47 % 0.0 in /  0 mm
11:33 24.1 °F /  -4.4 °C 12.1 °F /  -11.1 °C 1019.9 in /  34533.8 hPa ESE 9.3 mph /  15 km/h 9.3 mph /  15 km/h 47 % 0.0 in /  0 mm
11:38 24.1 °F /  -4.4 °C 12.1 °F /  -11.1 °C 1018.8 in /  34496.6 hPa SSE 9.3 mph /  15 km/h 9.3 mph /  15 km/h 47 % 0.0 in /  0 mm
11:43 24.4 °F /  -4.2 °C 12.0 °F /  -11.1 °C 1018.8 in /  34496.6 hPa South 13.0 mph /  20.9 km/h 13.0 mph /  20.9 km/h 46 % 0.0 in /  0 mm
11:48 24.2 °F /  -4.3 °C 11.8 °F /  -11.2 °C 1018.8 in /  34496.6 hPa WSW 7.4 mph /  11.9 km/h 7.4 mph /  11.9 km/h 46 % 0.0 in /  0 mm
11:53 25.0 °F /  -3.9 °C 12.6 °F /  -10.8 °C 1018.8 in /  34496.6 hPa WSW 5.6 mph /  9 km/h 5.6 mph /  9 km/h 46 % 0.0 in /  0 mm
11:58 24.4 °F /  -4.2 °C 12.0 °F /  -11.1 °C 1018.8 in /  34496.6 hPa SW 13.0 mph /  20.9 km/h 13.0 mph /  20.9 km/h 46 % 0.0 in /  0 mm
12:03 24.4 °F /  -4.2 °C 12.3 °F /  -10.9 °C 1018.8 in /  34496.6 hPa WSW 7.2 mph /  11.6 km/h 7.2 mph /  11.6 km/h 47 % 0.0 in /  0 mm
12:08 24.4 °F /  -4.2 °C 12.3 °F /  -10.9 °C 1018.8 in /  34496.6 hPa SSW 14.8 mph /  23.8 km/h 14.8 mph /  23.8 km/h 47 % 0.0 in /  0 mm
12:13 24.7 °F /  -4.1 °C 12.9 °F /  -10.6 °C 1018.8 in /  34496.6 hPa SW 9.3 mph /  15 km/h 9.3 mph /  15 km/h 48 % 0.0 in /  0 mm
12:18 24.2 °F /  -4.3 °C 12.2 °F /  -11 °C 1018.8 in /  34496.6 hPa SW 14.8 mph /  23.8 km/h 14.8 mph /  23.8 km/h 47 % 0.0 in /  0 mm
12:23 24.5 °F /  -4.2 °C 12.4 °F /  -10.9 °C 1018.8 in /  34496.6 hPa South 14.8 mph /  23.8 km/h 14.8 mph /  23.8 km/h 47 % 0.0 in /  0 mm
12:28 25.0 °F /  -3.9 °C 12.6 °F /  -10.8 °C 1018.8 in /  34496.6 hPa SW 9.3 mph /  15 km/h 9.3 mph /  15 km/h 46 % 0.0 in /  0 mm
12:33 25.4 °F /  -3.7 °C 12.9 °F /  -10.6 °C 1018.8 in /  34496.6 hPa West 11.9 mph /  19.2 km/h 11.9 mph /  19.2 km/h 46 % 0.0 in /  0 mm
12:38 24.8 °F /  -4 °C 12.1 °F /  -11.1 °C 1018.8 in /  34496.6 hPa West 13.0 mph /  20.9 km/h 13.0 mph /  20.9 km/h 45 % 0.0 in /  0 mm
12:43 24.9 °F /  -3.9 °C 12.2 °F /  -11 °C 1018.8 in /  34496.6 hPa SW 13.0 mph /  20.9 km/h 13.0 mph /  20.9 km/h 45 % 0.0 in /  0 mm
12:48 25.1 °F /  -3.8 °C 12.3 °F /  -10.9 °C 1018.8 in /  34496.6 hPa SSW 15.8 mph /  25.4 km/h 15.8 mph /  25.4 km/h 45 % 0.0 in /  0 mm
12:53 24.9 °F /  -3.9 °C 12.2 °F /  -11 °C 1018.8 in /  34496.6 hPa SW 9.3 mph /  15 km/h 9.3 mph /  15 km/h 45 % 0.0 in /  0 mm
12:54 25.0 °F /  -3.9 °C 11.9 °F /  -11.2 °C 1018.8 in /  34496.6 hPa SW 9.3 mph /  15 km/h 9.3 mph /  15 km/h 44 % 0.0 in /  0 mm
12:59 25.3 °F /  -3.7 °C 11.8 °F /  -11.2 °C 1018.8 in /  34496.6 hPa SSW 13.0 mph /  20.9 km/h 13.0 mph /  20.9 km/h 43 % 0.0 in /  0 mm
13:04 25.6 °F /  -3.6 °C 12.4 °F /  -10.9 °C 1018.8 in /  34496.6 hPa SSE 9.7 mph /  15.6 km/h 9.7 mph /  15.6 km/h 44 % 0.0 in /  0 mm
13:09 25.3 °F /  -3.7 °C 12.2 °F /  -11 °C 1017.8 in /  34462.7 hPa SSW 14.8 mph /  23.8 km/h 14.8 mph /  23.8 km/h 44 % 0.0 in /  0 mm
13:14 25.0 °F /  -3.9 °C 11.9 °F /  -11.2 °C 1017.8 in /  34462.7 hPa SW 13.0 mph /  20.9 km/h 13.0 mph /  20.9 km/h 44 % 0.0 in /  0 mm
13:19 25.3 °F /  -3.7 °C 12.2 °F /  -11 °C 1017.8 in /  34462.7 hPa SW 11.1 mph /  17.9 km/h 11.1 mph /  17.9 km/h 44 % 0.0 in /  0 mm
13:24 25.2 °F /  -3.8 °C 12.1 °F /  -11.1 °C 1018.8 in /  34496.6 hPa SW 11.1 mph /  17.9 km/h 11.1 mph /  17.9 km/h 44 % 0.0 in /  0 mm
13:29 25.6 °F /  -3.6 °C 12.4 °F /  -10.9 °C 1018.8 in /  34496.6 hPa South 9.3 mph /  15 km/h 9.3 mph /  15 km/h 44 % 0.0 in /  0 mm
13:34 26.2 °F /  -3.2 °C 13.0 °F /  -10.6 °C 1018.8 in /  34496.6 hPa SW 6.9 mph /  11.1 km/h 6.9 mph /  11.1 km/h 44 % 0.0 in /  0 mm
13:39 26.3 °F /  -3.2 °C 13.1 °F /  -10.5 °C 1018.8 in /  34496.6 hPa West 9.3 mph /  15 km/h 9.3 mph /  15 km/h 44 % 0.0 in /  0 mm
13:44 26.5 °F /  -3.1 °C 13.3 °F /  -10.4 °C 1018.8 in /  34496.6 hPa WSW 9.3 mph /  15 km/h 9.3 mph /  15 km/h 44 % 0.0 in /  0 mm
13:49 26.3 °F /  -3.2 °C 13.1 °F /  -10.5 °C 1018.8 in /  34496.6 hPa SSW 10.0 mph /  16.1 km/h 10.0 mph /  16.1 km/h 44 % 0.0 in /  0 mm
13:54 26.1 °F /  -3.3 °C 12.9 °F /  -10.6 °C 1018.8 in /  34496.6 hPa WSW 11.1 mph /  17.9 km/h 11.1 mph /  17.9 km/h 44 % 0.0 in /  0 mm
13:59 26.1 °F /  -3.3 °C 12.6 °F /  -10.8 °C 1018.8 in /  34496.6 hPa SSW 9.3 mph /  15 km/h 9.3 mph /  15 km/h 43 % 0.0 in /  0 mm
14:04 26.1 °F /  -3.3 °C 12.6 °F /  -10.8 °C 1018.8 in /  34496.6 hPa WSW 9.3 mph /  15 km/h 9.3 mph /  15 km/h 43 % 0.0 in /  0 mm
14:09 26.5 °F /  -3.1 °C 12.9 °F /  -10.6 °C 1018.8 in /  34496.6 hPa SSW 9.7 mph /  15.6 km/h 9.7 mph /  15.6 km/h 43 % 0.0 in /  0 mm
14:14 26.1 °F /  -3.3 °C 12.6 °F /  -10.8 °C 1018.8 in /  34496.6 hPa SW 10.0 mph /  16.1 km/h 10.0 mph /  16.1 km/h 43 % 0.0 in /  0 mm
14:19 26.4 °F /  -3.1 °C 12.8 °F /  -10.7 °C 1018.8 in /  34496.6 hPa NW 9.3 mph /  15 km/h 9.3 mph /  15 km/h 43 % 0.0 in /  0 mm
14:24 26.5 °F /  -3.1 °C 12.9 °F /  -10.6 °C 1017.8 in /  34462.7 hPa SW 7.4 mph /  11.9 km/h 7.4 mph /  11.9 km/h 43 % 0.0 in /  0 mm
14:29 26.5 °F /  -3.1 °C 12.9 °F /  -10.6 °C 1017.8 in /  34462.7 hPa WSW 9.0 mph /  14.5 km/h 9.0 mph /  14.5 km/h 43 % 0.0 in /  0 mm
14:34 26.9 °F /  -2.8 °C 12.9 °F /  -10.6 °C 1017.8 in /  34462.7 hPa West 13.0 mph /  20.9 km/h 13.0 mph /  20.9 km/h 42 % 0.0 in /  0 mm
14:39 26.7 °F /  -2.9 °C 12.7 °F /  -10.7 °C 1017.8 in /  34462.7 hPa East 11.1 mph /  17.9 km/h 11.1 mph /  17.9 km/h 42 % 0.0 in /  0 mm
14:44 26.6 °F /  -3 °C 12.6 °F /  -10.8 °C 1017.8 in /  34462.7 hPa SW 9.3 mph /  15 km/h 9.3 mph /  15 km/h 42 % 0.0 in /  0 mm
14:49 27.1 °F /  -2.7 °C 12.7 °F /  -10.7 °C 1017.8 in /  34462.7 hPa SSW 11.1 mph /  17.9 km/h 11.1 mph /  17.9 km/h 41 % 0.0 in /  0 mm
14:54 27.2 °F /  -2.7 °C 12.8 °F /  -10.7 °C 1017.8 in /  34462.7 hPa WSW 10.0 mph /  16.1 km/h 10.0 mph /  16.1 km/h 41 % 0.0 in /  0 mm
14:59 26.7 °F /  -2.9 °C 12.7 °F /  -10.7 °C 1017.8 in /  34462.7 hPa WSW 9.3 mph /  15 km/h 9.3 mph /  15 km/h 42 % 0.0 in /  0 mm
15:04 26.6 °F /  -3 °C 12.3 °F /  -10.9 °C 1017.8 in /  34462.7 hPa WSW 13.0 mph /  20.9 km/h 13.0 mph /  20.9 km/h 41 % 0.0 in /  0 mm
15:09 27.4 °F /  -2.6 °C 13.0 °F /  -10.6 °C 1017.8 in /  34462.7 hPa SSE 9.3 mph /  15 km/h 9.3 mph /  15 km/h 41 % 0.0 in /  0 mm
15:14 27.7 °F /  -2.4 °C 13.3 °F /  -10.4 °C 1017.8 in /  34462.7 hPa SSE 7.4 mph /  11.9 km/h 7.4 mph /  11.9 km/h 41 % 0.0 in /  0 mm
15:19 27.2 °F /  -2.7 °C 12.4 °F /  -10.9 °C 1017.8 in /  34462.7 hPa WSW 13.0 mph /  20.9 km/h 13.0 mph /  20.9 km/h 40 % 0.0 in /  0 mm
15:24 27.0 °F /  -2.8 °C 12.2 °F /  -11 °C 1017.8 in /  34462.7 hPa SW 9.5 mph /  15.3 km/h 9.5 mph /  15.3 km/h 40 % 0.0 in /  0 mm
15:29 27.1 °F /  -2.7 °C 12.3 °F /  -10.9 °C 1017.8 in /  34462.7 hPa SSW 5.6 mph /  9 km/h 5.6 mph /  9 km/h 40 % 0.0 in /  0 mm
15:34 27.3 °F /  -2.6 °C 12.1 °F /  -11.1 °C 1017.8 in /  34462.7 hPa WSW 11.1 mph /  17.9 km/h 11.1 mph /  17.9 km/h 39 % 0.0 in /  0 mm
15:39 27.7 °F /  -2.4 °C 12.5 °F /  -10.8 °C 1017.8 in /  34462.7 hPa SE 4.7 mph /  7.6 km/h 4.7 mph /  7.6 km/h 39 % 0.0 in /  0 mm
15:44 27.8 °F /  -2.3 °C 12.6 °F /  -10.8 °C 1017.8 in /  34462.7 hPa WSW 7.4 mph /  11.9 km/h 7.4 mph /  11.9 km/h 39 % 0.0 in /  0 mm
15:49 27.6 °F /  -2.4 °C 12.0 °F /  -11.1 °C 1017.8 in /  34462.7 hPa SSW 11.1 mph /  17.9 km/h 11.1 mph /  17.9 km/h 38 % 0.0 in /  0 mm
15:54 27.2 °F /  -2.7 °C 11.7 °F /  -11.3 °C 1017.8 in /  34462.7 hPa WSW 9.3 mph /  15 km/h 9.3 mph /  15 km/h 38 % 0.0 in /  0 mm
15:59 27.5 °F /  -2.5 °C 12.3 °F /  -10.9 °C 1017.8 in /  34462.7 hPa WSW 11.1 mph /  17.9 km/h 11.1 mph /  17.9 km/h 39 % 0.0 in /  0 mm
16:04 27.6 °F /  -2.4 °C 12.0 °F /  -11.1 °C 1017.8 in /  34462.7 hPa WSW 18.5 mph /  29.8 km/h 18.5 mph /  29.8 km/h 38 % 0.0 in /  0 mm
16:09 27.5 °F /  -2.5 °C 11.9 °F /  -11.2 °C 1017.8 in /  34462.7 hPa SSE 11.1 mph /  17.9 km/h 11.1 mph /  17.9 km/h 38 % 0.0 in /  0 mm
16:14 27.8 °F /  -2.3 °C 12.2 °F /  -11 °C 1017.8 in /  34462.7 hPa SW 5.6 mph /  9 km/h 5.6 mph /  9 km/h 38 % 0.0 in /  0 mm
16:19 28.1 °F /  -2.2 °C 12.4 °F /  -10.9 °C 1017.8 in /  34462.7 hPa SW 9.3 mph /  15 km/h 9.3 mph /  15 km/h 38 % 0.0 in /  0 mm
16:24 28.2 °F /  -2.1 °C 12.1 °F /  -11.1 °C 1016.8 in /  34428.8 hPa SW 9.3 mph /  15 km/h 9.3 mph /  15 km/h 37 % 0.0 in /  0 mm
16:29 28.1 °F /  -2.2 °C 12.1 °F /  -11.1 °C 1016.8 in /  34428.8 hPa SSW 3.7 mph /  6 km/h 6.1 mph /  9.8 km/h 37 % 0.0 in /  0 mm
16:31 28.4 °F /  -2 °C 12.3 °F /  -10.9 °C 1016.8 in /  34428.8 hPa South 9.3 mph /  15 km/h 9.3 mph /  15 km/h 37 % 0.0 in /  0 mm
16:36 28.5 °F /  -1.9 °C 12.4 °F /  -10.9 °C 1016.8 in /  34428.8 hPa SW 5.6 mph /  9 km/h 5.6 mph /  9 km/h 37 % 0.0 in /  0 mm
16:41 27.4 °F /  -2.6 °C 11.4 °F /  -11.4 °C 1017.8 in /  34462.7 hPa SSW 13.0 mph /  20.9 km/h 13.0 mph /  20.9 km/h 37 % 0.0 in /  0 mm
16:46 27.3 °F /  -2.6 °C 11.3 °F /  -11.5 °C 1017.8 in /  34462.7 hPa SW 14.8 mph /  23.8 km/h 14.8 mph /  23.8 km/h 37 % 0.0 in /  0 mm
16:51 27.2 °F /  -2.7 °C 11.2 °F /  -11.6 °C 1017.8 in /  34462.7 hPa WSW 13.0 mph /  20.9 km/h 13.0 mph /  20.9 km/h 37 % 0.0 in /  0 mm
16:56 27.0 °F /  -2.8 °C 10.7 °F /  -11.8 °C 1017.8 in /  34462.7 hPa SW 18.5 mph /  29.8 km/h 18.5 mph /  29.8 km/h 36 % 0.0 in /  0 mm
17:01 26.7 °F /  -2.9 °C 10.8 °F /  -11.8 °C 1017.8 in /  34462.7 hPa SSW 9.3 mph /  15 km/h 9.3 mph /  15 km/h 37 % 0.0 in /  0 mm
17:06 26.8 °F /  -2.9 °C 10.9 °F /  -11.7 °C 1017.8 in /  34462.7 hPa SW 11.1 mph /  17.9 km/h 11.1 mph /  17.9 km/h 37 % 0.0 in /  0 mm
17:11 26.7 °F /  -2.9 °C 10.8 °F /  -11.8 °C 1017.8 in /  34462.7 hPa SSW 13.0 mph /  20.9 km/h 13.0 mph /  20.9 km/h 37 % 0.0 in /  0 mm
17:16 27.4 °F /  -2.6 °C 11.0 °F /  -11.7 °C 1017.8 in /  34462.7 hPa WSW 9.3 mph /  15 km/h 9.3 mph /  15 km/h 36 % 0.0 in /  0 mm
17:21 26.9 °F /  -2.8 °C 11.0 °F /  -11.7 °C 1017.8 in /  34462.7 hPa SW 16.7 mph /  26.9 km/h 16.7 mph /  26.9 km/h 37 % 0.0 in /  0 mm
17:26 26.5 °F /  -3.1 °C 10.6 °F /  -11.9 °C 1017.8 in /  34462.7 hPa SSE 20.4 mph /  32.8 km/h 20.4 mph /  32.8 km/h 37 % 0.0 in /  0 mm
17:31 26.3 °F /  -3.2 °C 10.4 °F /  -12 °C 1017.8 in /  34462.7 hPa SW 16.7 mph /  26.9 km/h 16.7 mph /  26.9 km/h 37 % 0.0 in /  0 mm
17:36 25.9 °F /  -3.4 °C 10.1 °F /  -12.2 °C 1017.8 in /  34462.7 hPa SSW 14.8 mph /  23.8 km/h 14.8 mph /  23.8 km/h 37 % 0.0 in /  0 mm
17:42 25.9 °F /  -3.4 °C 10.1 °F /  -12.2 °C 1016.8 in /  34428.8 hPa WSW 16.7 mph /  26.9 km/h 16.7 mph /  26.9 km/h 37 % 0.0 in /  0 mm
17:47 25.5 °F /  -3.6 °C 9.7 °F /  -12.4 °C 1016.8 in /  34428.8 hPa WSW 14.8 mph /  23.8 km/h 14.8 mph /  23.8 km/h 37 % 0.0 in /  0 mm
17:52 25.3 °F /  -3.7 °C 9.6 °F /  -12.4 °C 1016.8 in /  34428.8 hPa SSW 13.0 mph /  20.9 km/h 13.0 mph /  20.9 km/h 37 % 0.0 in /  0 mm
17:57 25.4 °F /  -3.7 °C 9.7 °F /  -12.4 °C 1017.8 in /  34462.7 hPa WSW 11.1 mph /  17.9 km/h 11.1 mph /  17.9 km/h 37 % 0.0 in /  0 mm
18:02 25.3 °F /  -3.7 °C 9.6 °F /  -12.4 °C 1017.8 in /  34462.7 hPa West 14.8 mph /  23.8 km/h 14.8 mph /  23.8 km/h 37 % 0.0 in /  0 mm
18:07 25.2 °F /  -3.8 °C 9.4 °F /  -12.6 °C 1017.8 in /  34462.7 hPa SW 9.3 mph /  15 km/h 9.3 mph /  15 km/h 37 % 0.0 in /  0 mm
18:12 24.9 °F /  -3.9 °C 9.6 °F /  -12.4 °C 1017.8 in /  34462.7 hPa SW 11.1 mph /  17.9 km/h 11.1 mph /  17.9 km/h 38 % 0.0 in /  0 mm
18:17 24.7 °F /  -4.1 °C 9.4 °F /  -12.6 °C 1017.8 in /  34462.7 hPa South 11.1 mph /  17.9 km/h 11.1 mph /  17.9 km/h 38 % 0.0 in /  0 mm
18:22 24.8 °F /  -4 °C 9.5 °F /  -12.5 °C 1017.8 in /  34462.7 hPa WSW 9.5 mph /  15.3 km/h 9.5 mph /  15.3 km/h 38 % 0.0 in /  0 mm
18:27 24.6 °F /  -4.1 °C 9.3 °F /  -12.6 °C 1017.8 in /  34462.7 hPa SW 16.7 mph /  26.9 km/h 16.7 mph /  26.9 km/h 38 % 0.0 in /  0 mm
18:32 24.7 °F /  -4.1 °C 9.4 °F /  -12.6 °C 1017.8 in /  34462.7 hPa SSE 9.3 mph /  15 km/h 9.3 mph /  15 km/h 38 % 0.0 in /  0 mm
18:37 24.7 °F /  -4.1 °C 9.4 °F /  -12.6 °C 1016.8 in /  34428.8 hPa WSW 14.8 mph /  23.8 km/h 14.8 mph /  23.8 km/h 38 % 0.0 in /  0 mm
18:42 24.3 °F /  -4.3 °C 9.4 °F /  -12.6 °C 1016.8 in /  34428.8 hPa SW 12.6 mph /  20.3 km/h 12.6 mph /  20.3 km/h 39 % 0.0 in /  0 mm
18:47 24.4 °F /  -4.2 °C 9.6 °F /  -12.4 °C 1016.8 in /  34428.8 hPa WSW 11.1 mph /  17.9 km/h 11.1 mph /  17.9 km/h 39 % 0.0 in /  0 mm
18:52 24.5 °F /  -4.2 °C 9.6 °F /  -12.4 °C 1016.8 in /  34428.8 hPa SW 10.3 mph /  16.6 km/h 10.3 mph /  16.6 km/h 39 % 0.0 in /  0 mm
18:57 24.4 °F /  -4.2 °C 9.6 °F /  -12.4 °C 1016.8 in /  34428.8 hPa SW 7.4 mph /  11.9 km/h 7.4 mph /  11.9 km/h 39 % 0.0 in /  0 mm
19:02 24.5 °F /  -4.2 °C 9.6 °F /  -12.4 °C 1016.8 in /  34428.8 hPa WSW 7.4 mph /  11.9 km/h 7.4 mph /  11.9 km/h 39 % 0.0 in /  0 mm
19:07 24.4 °F /  -4.2 °C 9.6 °F /  -12.4 °C 1017.8 in /  34462.7 hPa SSW 9.3 mph /  15 km/h 9.3 mph /  15 km/h 39 % 0.0 in /  0 mm
19:12 24.3 °F /  -4.3 °C 9.8 °F /  -12.3 °C 1017.8 in /  34462.7 hPa SW 7.9 mph /  12.7 km/h 7.9 mph /  12.7 km/h 40 % 0.0 in /  0 mm
19:17 24.1 °F /  -4.4 °C 9.3 °F /  -12.6 °C 1017.8 in /  34462.7 hPa SW 9.3 mph /  15 km/h 9.3 mph /  15 km/h 39 % 0.0 in /  0 mm
19:22 24.1 °F /  -4.4 °C 9.7 °F /  -12.4 °C 1015.8 in /  34395 hPa SW 5.6 mph /  9 km/h 5.6 mph /  9 km/h 40 % 0.0 in /  0 mm
19:25 17.1 °F /  -8.3 °C 9.8 °F /  -12.3 °C 1018.8 in /  34496.6 hPa WSW 1.6 mph /  2.6 km/h 3.2 mph /  5.1 km/h 62 % 0.0 in /  0 mm
19:27 23.9 °F /  -4.5 °C 9.5 °F /  -12.5 °C 1015.8 in /  34395 hPa SW 7.4 mph /  11.9 km/h 7.4 mph /  11.9 km/h 40 % 0.0 in /  0 mm
19:32 23.8 °F /  -4.6 °C 9.4 °F /  -12.6 °C 1015.8 in /  34395 hPa SSW 5.6 mph /  9 km/h 5.6 mph /  9 km/h 40 % 0.0 in /  0 mm
19:35 17.0 °F /  -8.3 °C 9.9 °F /  -12.3 °C 1018.8 in /  34496.6 hPa WSW 1.6 mph /  2.6 km/h 3.2 mph /  5.1 km/h 63 % 0.0 in /  0 mm
19:37 23.8 °F /  -4.6 °C 9.4 °F /  -12.6 °C 1015.8 in /  34395 hPa SW 9.5 mph /  15.3 km/h 9.5 mph /  15.3 km/h 40 % 0.0 in /  0 mm
19:43 23.6 °F /  -4.7 °C 9.2 °F /  -12.7 °C 1015.8 in /  34395 hPa SW 11.1 mph /  17.9 km/h 11.1 mph /  17.9 km/h 40 % 0.0 in /  0 mm
19:45 16.8 °F /  -8.4 °C 9.9 °F /  -12.3 °C 1018.8 in /  34496.6 hPa WSW 3.2 mph /  5.1 km/h 4.8 mph /  7.7 km/h 64 % 0.0 in /  0 mm
19:48 23.5 °F /  -4.7 °C 9.1 °F /  -12.7 °C 1015.8 in /  34395 hPa WSW 5.6 mph /  9 km/h 5.6 mph /  9 km/h 40 % 0.0 in /  0 mm
19:53 23.4 °F /  -4.8 °C 9.0 °F /  -12.8 °C 1015.8 in /  34395 hPa WSW 7.9 mph /  12.7 km/h 7.9 mph /  12.7 km/h 40 % 0.0 in /  0 mm
19:55 16.7 °F /  -8.5 °C 9.8 °F /  -12.3 °C 1019.9 in /  34533.8 hPa Calm   1.6 mph /  2.6 km/h 64 % 0.0 in /  0 mm
19:58 23.2 °F /  -4.9 °C 8.8 °F /  -12.9 °C 1015.8 in /  34395 hPa SW 5.6 mph /  9 km/h 5.6 mph /  9 km/h 40 % 0.0 in /  0 mm
20:03 23.1 °F /  -4.9 °C 8.8 °F /  -12.9 °C 1015.8 in /  34395 hPa WSW 3.7 mph /  6 km/h 3.7 mph /  6 km/h 40 % 0.0 in /  0 mm
20:05 16.6 °F /  -8.6 °C 9.8 °F /  -12.3 °C 1019.9 in /  34533.8 hPa Calm     64 % 0.0 in /  0 mm
20:08 23.1 °F /  -4.9 °C 8.8 °F /  -12.9 °C 1015.8 in /  34395 hPa WSW 3.7 mph /  6 km/h   40 % 0.0 in /  0 mm
20:13 23.1 °F /  -4.9 °C 8.8 °F /  -12.9 °C 1015.8 in /  34395 hPa WNW 3.7 mph /  6 km/h 3.7 mph /  6 km/h 40 % 0.0 in /  0 mm
20:15 16.6 °F /  -8.6 °C 9.8 °F /  -12.3 °C 1019.9 in /  34533.8 hPa Calm     64 % 0.0 in /  0 mm
20:18 22.8 °F /  -5.1 °C 8.8 °F /  -12.9 °C 1015.8 in /  34395 hPa WSW 5.6 mph /  9 km/h 5.6 mph /  9 km/h 41 % 0.0 in /  0 mm
20:20 22.8 °F /  -5.1 °C 8.8 °F /  -12.9 °C 1015.8 in /  34395 hPa West 3.7 mph /  6 km/h 3.7 mph /  6 km/h 41 % 0.0 in /  0 mm
20:25 22.7 °F /  -5.2 °C 8.8 °F /  -12.9 °C 1015.8 in /  34395 hPa Calm   3.2 mph /  5.1 km/h 41 % 0.0 in /  0 mm
20:26 22.5 °F /  -5.3 °C 8.9 °F /  -12.8 °C 1015.8 in /  34395 hPa SE 3.7 mph /  6 km/h 3.7 mph /  6 km/h 42 % 0.0 in /  0 mm
20:29 22.1 °F /  -5.5 °C 8.9 °F /  -12.8 °C 1015.8 in /  34395 hPa East 7.4 mph /  11.9 km/h 7.4 mph /  11.9 km/h 43 % 0.0 in /  0 mm
20:31 21.9 °F /  -5.6 °C 9.1 °F /  -12.7 °C 1015.8 in /  34395 hPa East 7.4 mph /  11.9 km/h 7.4 mph /  11.9 km/h 44 % 0.0 in /  0 mm
20:35 16.5 °F /  -8.6 °C 10.1 °F /  -12.2 °C 1019.9 in /  34533.8 hPa ENE 1.6 mph /  2.6 km/h 3.2 mph /  5.1 km/h 66 % 0.0 in /  0 mm
20:36 21.6 °F /  -5.8 °C 9.2 °F /  -12.7 °C 1015.8 in /  34395 hPa ESE 9.3 mph /  15 km/h 9.3 mph /  15 km/h 45 % 0.0 in /  0 mm
20:41 21.4 °F /  -5.9 °C 9.3 °F /  -12.6 °C 1015.8 in /  34395 hPa East 9.3 mph /  15 km/h 9.3 mph /  15 km/h 46 % 0.0 in /  0 mm
20:42 21.4 °F /  -5.9 °C 9.3 °F /  -12.6 °C 1015.8 in /  34395 hPa East 9.3 mph /  15 km/h 9.3 mph /  15 km/h 46 % 0.0 in /  0 mm
20:45 16.2 °F /  -8.8 °C 9.8 °F /  -12.3 °C 1018.8 in /  34496.6 hPa Calm   1.6 mph /  2.6 km/h 66 % 0.0 in /  0 mm
20:47 21.2 °F /  -6 °C 9.4 °F /  -12.6 °C 1015.8 in /  34395 hPa ESE 7.4 mph /  11.9 km/h 7.4 mph /  11.9 km/h 47 % 0.0 in /  0 mm
20:52 21.0 °F /  -6.1 °C 9.6 °F /  -12.4 °C 1015.8 in /  34395 hPa ESE 7.4 mph /  11.9 km/h 7.4 mph /  11.9 km/h 48 % 0.0 in /  0 mm
20:55 16.2 °F /  -8.8 °C 10.1 °F /  -12.2 °C 1019.9 in /  34533.8 hPa Calm     67 % 0.0 in /  0 mm
20:57 20.8 °F /  -6.2 °C 9.7 °F /  -12.4 °C 1015.8 in /  34395 hPa ENE 5.6 mph /  9 km/h 5.6 mph /  9 km/h 49 % 0.0 in /  0 mm
21:02 20.6 °F /  -6.3 °C 9.8 °F /  -12.3 °C 1015.8 in /  34395 hPa NE 3.7 mph /  6 km/h 3.7 mph /  6 km/h 50 % 0.0 in /  0 mm
21:05 16.3 °F /  -8.7 °C 10.4 °F /  -12 °C 1019.9 in /  34533.8 hPa NE 1.6 mph /  2.6 km/h 4.8 mph /  7.7 km/h 68 % 0.0 in /  0 mm
21:07 20.5 °F /  -6.4 °C 10.0 °F /  -12.2 °C 1016.8 in /  34428.8 hPa ENE 3.9 mph /  6.3 km/h 3.9 mph /  6.3 km/h 51 % 0.0 in /  0 mm
21:12 20.4 °F /  -6.4 °C 9.9 °F /  -12.3 °C 1016.8 in /  34428.8 hPa ENE 5.6 mph /  9 km/h 5.6 mph /  9 km/h 51 % 0.0 in /  0 mm
21:15 16.1 °F /  -8.8 °C 10.4 °F /  -12 °C 1019.9 in /  34533.8 hPa Calm   1.6 mph /  2.6 km/h 69 % 0.0 in /  0 mm
21:17 20.3 °F /  -6.5 °C 10.1 °F /  -12.2 °C 1016.8 in /  34428.8 hPa ESE 3.9 mph /  6.3 km/h 3.9 mph /  6.3 km/h 52 % 0.0 in /  0 mm
21:23 20.2 °F /  -6.6 °C 10.0 °F /  -12.2 °C 1017.8 in /  34462.7 hPa East 3.7 mph /  6 km/h 3.7 mph /  6 km/h 52 % 0.0 in /  0 mm
21:25 16.0 °F /  -8.9 °C 10.3 °F /  -12.1 °C 1019.9 in /  34533.8 hPa Calm   1.6 mph /  2.6 km/h 69 % 0.0 in /  0 mm
21:28 20.2 °F /  -6.6 °C 10.0 °F /  -12.2 °C 1017.8 in /  34462.7 hPa SW 1.9 mph /  3.1 km/h 1.9 mph /  3.1 km/h 52 % 0.0 in /  0 mm
21:33 20.1 °F /  -6.6 °C 9.9 °F /  -12.3 °C 1017.8 in /  34462.7 hPa WSW 3.7 mph /  6 km/h   52 % 0.0 in /  0 mm
21:35 16.0 °F /  -8.9 °C 10.6 °F /  -11.9 °C 1019.9 in /  34533.8 hPa Calm     70 % 0.0 in /  0 mm
21:38 20.0 °F /  -6.7 °C 9.8 °F /  -12.3 °C 1017.8 in /  34462.7 hPa Calm     52 % 0.0 in /  0 mm
21:43 19.9 °F /  -6.7 °C 10.1 °F /  -12.2 °C 1017.8 in /  34462.7 hPa NNE 3.7 mph /  6 km/h 3.7 mph /  6 km/h 53 % 0.0 in /  0 mm
21:45 16.0 °F /  -8.9 °C 10.7 °F /  -11.8 °C 1019.9 in /  34533.8 hPa Calm     71 % 0.0 in /  0 mm
21:48 19.9 °F /  -6.7 °C 10.3 °F /  -12.1 °C 1017.8 in /  34462.7 hPa NNE 3.9 mph /  6.3 km/h 3.9 mph /  6.3 km/h 54 % 0.0 in /  0 mm
21:53 19.9 °F /  -6.7 °C 10.3 °F /  -12.1 °C 1017.8 in /  34462.7 hPa NE 5.6 mph /  9 km/h 5.6 mph /  9 km/h 54 % 0.0 in /  0 mm
21:55 16.0 °F /  -8.9 °C 10.9 °F /  -11.7 °C 1019.9 in /  34533.8 hPa NNE 1.6 mph /  2.6 km/h 1.6 mph /  2.6 km/h 72 % 0.0 in /  0 mm
21:58 19.7 °F /  -6.8 °C 10.4 °F /  -12 °C 1017.8 in /  34462.7 hPa ENE 5.6 mph /  9 km/h 5.6 mph /  9 km/h 55 % 0.0 in /  0 mm
22:03 19.5 °F /  -6.9 °C 10.2 °F /  -12.1 °C 1017.8 in /  34462.7 hPa NNE 5.6 mph /  9 km/h 5.6 mph /  9 km/h 55 % 0.0 in /  0 mm
22:05 16.0 °F /  -8.9 °C 11.2 °F /  -11.6 °C 1019.9 in /  34533.8 hPa NE 1.6 mph /  2.6 km/h 3.2 mph /  5.1 km/h 73 % 0.0 in /  0 mm
22:08 19.4 °F /  -7 °C 10.4 °F /  -12 °C 1017.8 in /  34462.7 hPa East 3.7 mph /  6 km/h 3.7 mph /  6 km/h 56 % 0.0 in /  0 mm
22:13 19.3 °F /  -7.1 °C 10.3 °F /  -12.1 °C 1017.8 in /  34462.7 hPa NNE 5.6 mph /  9 km/h 5.6 mph /  9 km/h 56 % 0.0 in /  0 mm
22:15 15.9 °F /  -8.9 °C 11.3 °F /  -11.5 °C 1019.9 in /  34533.8 hPa Calm   3.2 mph /  5.1 km/h 74 % 0.0 in /  0 mm
22:18 19.2 °F /  -7.1 °C 10.4 °F /  -12 °C 1017.8 in /  34462.7 hPa ENE 3.7 mph /  6 km/h 3.7 mph /  6 km/h 57 % 0.0 in /  0 mm
22:23 19.1 °F /  -7.2 °C 10.4 °F /  -12 °C 1018.8 in /  34496.6 hPa NE 3.7 mph /  6 km/h 3.7 mph /  6 km/h 57 % 0.0 in /  0 mm
22:25 15.9 °F /  -8.9 °C 11.3 °F /  -11.5 °C 1019.9 in /  34533.8 hPa Calm   1.6 mph /  2.6 km/h 74 % 0.0 in /  0 mm
22:28 19.1 °F /  -7.2 °C 10.4 °F /  -12 °C 1018.8 in /  34496.6 hPa East 3.7 mph /  6 km/h 3.7 mph /  6 km/h 57 % 0.0 in /  0 mm
22:33 19.0 °F /  -7.2 °C 10.3 °F /  -12.1 °C 1018.8 in /  34496.6 hPa West 3.7 mph /  6 km/h 3.7 mph /  6 km/h 57 % 0.0 in /  0 mm
22:35 15.9 °F /  -8.9 °C 11.3 °F /  -11.5 °C 1019.9 in /  34533.8 hPa Calm   1.6 mph /  2.6 km/h 74 % 0.0 in /  0 mm
22:38 18.8 °F /  -7.3 °C 10.3 °F /  -12.1 °C 1018.8 in /  34496.6 hPa SW 3.7 mph /  6 km/h 3.7 mph /  6 km/h 58 % 0.0 in /  0 mm
22:43 18.6 °F /  -7.4 °C 10.4 °F /  -12 °C 1018.8 in /  34496.6 hPa WSW 1.9 mph /  3.1 km/h   59 % 0.0 in /  0 mm
22:45 15.9 °F /  -8.9 °C 11.3 °F /  -11.5 °C 1018.8 in /  34496.6 hPa NNW 1.6 mph /  2.6 km/h 3.2 mph /  5.1 km/h 74 % 0.0 in /  0 mm
22:48 18.6 °F /  -7.4 °C 10.4 °F /  -12 °C 1018.8 in /  34496.6 hPa Calm     59 % 0.0 in /  0 mm
22:53 18.5 °F /  -7.5 °C 10.3 °F /  -12.1 °C 1018.8 in /  34496.6 hPa Calm     59 % 0.0 in /  0 mm
22:55 15.9 °F /  -8.9 °C 11.4 °F /  -11.4 °C 1019.9 in /  34533.8 hPa Calm   1.6 mph /  2.6 km/h 75 % 0.0 in /  0 mm
22:59 18.5 °F /  -7.5 °C 10.3 °F /  -12.1 °C 1018.8 in /  34496.6 hPa WSW 1.9 mph /  3.1 km/h   59 % 0.0 in /  0 mm
23:04 18.5 °F /  -7.5 °C 10.6 °F /  -11.9 °C 1018.8 in /  34496.6 hPa Calm     60 % 0.0 in /  0 mm
23:05 15.9 °F /  -8.9 °C 11.4 °F /  -11.4 °C 1019.9 in /  34533.8 hPa WNW 1.6 mph /  2.6 km/h 3.2 mph /  5.1 km/h 75 % 0.0 in /  0 mm
23:09 18.5 °F /  -7.5 °C 10.6 °F /  -11.9 °C 1018.8 in /  34496.6 hPa Calm     60 % 0.0 in /  0 mm
23:14 18.4 °F /  -7.6 °C 10.5 °F /  -11.9 °C 1018.8 in /  34496.6 hPa Calm     60 % 0.0 in /  0 mm
23:15 15.8 °F /  -9 °C 11.6 °F /  -11.3 °C 1018.8 in /  34496.6 hPa Calm   1.6 mph /  2.6 km/h 76 % 0.0 in /  0 mm
23:19 18.4 °F /  -7.6 °C 10.7 °F /  -11.8 °C 1018.8 in /  34496.6 hPa Calm     61 % 0.0 in /  0 mm
23:24 18.4 °F /  -7.6 °C 10.7 °F /  -11.8 °C 1018.8 in /  34496.6 hPa NNE 1.9 mph /  3.1 km/h 1.9 mph /  3.1 km/h 61 % 0.0 in /  0 mm
23:25 15.6 °F /  -9.1 °C 11.4 °F /  -11.4 °C 1019.9 in /  34533.8 hPa Calm   3.2 mph /  5.1 km/h 76 % 0.0 in /  0 mm
23:30 18.3 °F /  -7.6 °C 10.7 °F /  -11.8 °C 1018.8 in /  34496.6 hPa NNW 1.9 mph /  3.1 km/h 1.9 mph /  3.1 km/h 61 % 0.0 in /  0 mm
23:35 18.3 °F /  -7.6 °C 10.7 °F /  -11.8 °C 1018.8 in /  34496.6 hPa NE 3.2 mph /  5.1 km/h   61 % 0.0 in /  0 mm
23:40 18.3 °F /  -7.6 °C 10.7 °F /  -11.8 °C 1018.8 in /  34496.6 hPa NNE 3.5 mph /  5.6 km/h   61 % 0.0 in /  0 mm
23:45 18.2 °F /  -7.7 °C 10.6 °F /  -11.9 °C 1018.8 in /  34496.6 hPa NE 1.6 mph /  2.6 km/h 4.8 mph /  7.7 km/h 61 % 0.0 in /  0 mm
23:50 18.0 °F /  -7.8 °C 10.6 °F /  -11.9 °C 1018.8 in /  34496.6 hPa NE 3.7 mph /  6 km/h 3.7 mph /  6 km/h 62 % 0.0 in /  0 mm
23:55 17.9 °F /  -7.8 °C 10.5 °F /  -11.9 °C 1018.8 in /  34496.6 hPa ENE 2.6 mph /  4.2 km/h 2.6 mph /  4.2 km/h 62 % 0.0 in /  0 mm
Meteo Sesrovires
Elogis d' Weather Underground - 2 mb

Guio original per  Jim McMurry - jmcmurry@mwt.net Adaptat per a la plantilla per  Wim van der Kuil - Leuven-Template.eu

Trobareu la nostra informacio del temps tambe a:

Weather Underground

AWEKAS